createdAt,value
2019-03-05T00:00:57.149Z,3.7
2019-03-05T00:01:57.123Z,3.7
2019-03-05T00:02:56.999Z,3.7
2019-03-05T00:03:57.023Z,3.7
2019-03-05T00:04:57.404Z,3.7
2019-03-05T00:05:56.974Z,3.7
2019-03-05T00:06:57.026Z,3.7
2019-03-05T00:07:57.223Z,3.8
2019-03-05T00:08:57.001Z,3.8
2019-03-05T00:09:57.008Z,3.9
2019-03-05T00:10:56.999Z,3.9
2019-03-05T00:11:57.165Z,3.9
2019-03-05T00:12:56.999Z,3.8
2019-03-05T00:13:57.200Z,3.8
2019-03-05T00:14:57.185Z,3.8
2019-03-05T00:15:57.009Z,3.8
2019-03-05T00:16:57.233Z,3.8
2019-03-05T00:17:57.474Z,3.9
2019-03-05T00:18:57.348Z,3.9
2019-03-05T00:19:57.035Z,3.9
2019-03-05T00:20:57.435Z,3.9
2019-03-05T00:21:57.157Z,3.9
2019-03-05T00:22:57.013Z,4.0
2019-03-05T00:23:57.458Z,4.0
2019-03-05T00:24:57.427Z,4.0
2019-03-05T00:25:57.535Z,4.0
2019-03-05T00:26:57.016Z,4.0
2019-03-05T00:27:57.024Z,3.9
2019-03-05T00:28:57.040Z,3.9
2019-03-05T00:29:57.434Z,3.9
2019-03-05T00:30:57.247Z,3.9
2019-03-05T00:31:57.257Z,3.9
2019-03-05T00:32:57.115Z,4.0
2019-03-05T00:33:57.085Z,4.0
2019-03-05T00:34:57.244Z,4.0
2019-03-05T00:35:57.094Z,4.0
2019-03-05T00:36:57.449Z,4.0
2019-03-05T00:37:57.100Z,4.0
2019-03-05T00:38:57.052Z,4.0
2019-03-05T00:39:57.097Z,4.0
2019-03-05T00:40:57.090Z,3.9
2019-03-05T00:41:57.230Z,3.9
2019-03-05T00:42:57.464Z,3.9
2019-03-05T00:43:57.147Z,3.9
2019-03-05T00:44:57.505Z,3.9
2019-03-05T00:45:57.472Z,3.9
2019-03-05T00:46:57.624Z,3.9
2019-03-05T00:47:57.256Z,3.9
2019-03-05T00:48:57.208Z,3.8
2019-03-05T00:49:57.114Z,3.8
2019-03-05T00:50:57.314Z,3.9
2019-03-05T00:51:57.080Z,3.9
2019-03-05T00:52:57.087Z,3.9
2019-03-05T00:53:57.289Z,3.9
2019-03-05T00:54:57.105Z,3.9
2019-03-05T00:55:57.103Z,3.9
2019-03-05T00:56:57.533Z,3.9
2019-03-05T00:57:57.105Z,3.9
2019-03-05T00:58:57.505Z,4.1
2019-03-05T00:59:57.094Z,4.1
2019-03-05T01:00:57.511Z,4.1
2019-03-05T01:01:57.357Z,4.1
2019-03-05T01:02:57.637Z,4.1
2019-03-05T01:03:57.083Z,4.1
2019-03-05T01:04:57.100Z,4.1
2019-03-05T01:05:57.535Z,3.9
2019-03-05T01:06:57.346Z,3.9
2019-03-05T01:07:57.490Z,3.9
2019-03-05T01:08:57.100Z,3.9
2019-03-05T01:09:57.236Z,3.9
2019-03-05T01:10:57.133Z,3.9
2019-03-05T01:11:57.100Z,3.9
2019-03-05T01:12:57.607Z,3.9
2019-03-05T01:13:57.344Z,3.9
2019-03-05T01:14:57.375Z,3.9
2019-03-05T01:15:57.138Z,3.7
2019-03-05T01:16:57.556Z,3.7
2019-03-05T01:17:57.600Z,3.7
2019-03-05T01:18:57.549Z,3.5
2019-03-05T01:19:57.573Z,3.5
2019-03-05T01:20:57.359Z,3.5
2019-03-05T01:21:57.359Z,3.4
2019-03-05T01:22:57.596Z,3.4
2019-03-05T01:23:57.200Z,3.2
2019-03-05T01:24:57.388Z,3.2
2019-03-05T01:25:57.564Z,3.2
2019-03-05T01:26:57.553Z,3.1
2019-03-05T01:27:57.159Z,3.1
2019-03-05T01:28:57.212Z,3.0
2019-03-05T01:29:57.129Z,3.0
2019-03-05T01:30:57.196Z,3.0
2019-03-05T01:31:57.592Z,3.0
2019-03-05T01:32:57.172Z,3.0
2019-03-05T01:33:57.467Z,2.9
2019-03-05T01:34:57.127Z,2.9
2019-03-05T01:35:57.186Z,2.9
2019-03-05T01:36:57.150Z,2.7
2019-03-05T01:37:57.177Z,2.7
2019-03-05T01:38:57.456Z,2.9
2019-03-05T01:39:57.139Z,2.9
2019-03-05T01:40:57.141Z,2.9
2019-03-05T01:41:57.335Z,2.8
2019-03-05T01:42:57.209Z,2.8
2019-03-05T01:43:57.225Z,2.9
2019-03-05T01:44:57.333Z,2.9
2019-03-05T01:45:57.788Z,2.9
2019-03-05T01:46:57.329Z,2.8
2019-03-05T01:47:57.159Z,2.8
2019-03-05T01:48:57.575Z,2.8
2019-03-05T01:49:57.190Z,2.9
2019-03-05T01:50:57.133Z,2.9
2019-03-05T01:51:57.240Z,2.9
2019-03-05T01:52:57.242Z,2.9
2019-03-05T01:53:57.338Z,2.9
2019-03-05T01:54:57.468Z,2.8
2019-03-05T01:55:57.249Z,2.8
2019-03-05T01:56:57.460Z,2.8
2019-03-05T01:57:57.709Z,2.8
2019-03-05T01:58:57.498Z,2.8
2019-03-05T01:59:57.592Z,2.8
2019-03-05T02:00:57.226Z,2.8
2019-03-05T02:01:57.211Z,2.8
2019-03-05T02:02:57.763Z,2.8
2019-03-05T02:03:57.336Z,2.8
2019-03-05T02:04:57.437Z,2.9
2019-03-05T02:05:57.642Z,2.9
2019-03-05T02:06:57.753Z,3.1
2019-03-05T02:07:57.470Z,3.1
2019-03-05T02:08:57.330Z,3.1
2019-03-05T02:09:58.054Z,2.9
2019-03-05T02:10:57.556Z,2.9
2019-03-05T02:11:57.561Z,2.9
2019-03-05T02:12:57.376Z,2.9
2019-03-05T02:13:57.819Z,2.9
2019-03-05T02:14:57.337Z,3.0
2019-03-05T02:15:57.276Z,3.0
2019-03-05T02:16:57.347Z,2.9
2019-03-05T02:17:57.744Z,2.9
2019-03-05T02:18:58.061Z,2.9
2019-03-05T02:19:57.302Z,3.1
2019-03-05T02:20:57.364Z,3.1
2019-03-05T02:21:57.695Z,3.1
2019-03-05T02:22:57.758Z,3.1
2019-03-05T02:23:57.731Z,3.1
2019-03-05T02:24:57.312Z,3.2
2019-03-05T02:25:57.395Z,3.2
2019-03-05T02:26:57.274Z,3.2
2019-03-05T02:27:57.373Z,3.2
2019-03-05T02:28:57.574Z,3.2
2019-03-05T02:30:00.803Z,3.2
2019-03-05T02:30:57.384Z,3.2
2019-03-05T02:31:57.924Z,3.2
2019-03-05T02:32:57.825Z,3.2
2019-03-05T02:33:57.606Z,3.2
2019-03-05T02:34:57.513Z,3.1
2019-03-05T02:35:57.896Z,3.1
2019-03-05T02:36:57.871Z,3.1
2019-03-05T02:37:57.505Z,3.0
2019-03-05T02:38:57.555Z,3.0
2019-03-05T02:39:57.398Z,3.1
2019-03-05T02:40:57.817Z,3.1
2019-03-05T02:41:57.521Z,3.1
2019-03-05T02:42:57.326Z,3.1
2019-03-05T02:43:57.304Z,3.1
2019-03-05T02:44:57.836Z,3.1
2019-03-05T02:45:57.441Z,3.1
2019-03-05T02:46:57.595Z,3.1
2019-03-05T02:47:57.501Z,3.1
2019-03-05T02:48:57.384Z,3.1
2019-03-05T02:49:57.320Z,3.1
2019-03-05T02:50:57.364Z,3.1
2019-03-05T02:51:57.799Z,3.1
2019-03-05T02:53:00.143Z,3.0
2019-03-05T02:53:57.759Z,3.0
2019-03-05T02:54:57.413Z,3.0
2019-03-05T02:55:57.924Z,3.1
2019-03-05T02:56:57.770Z,3.1
2019-03-05T02:57:57.824Z,3.1
2019-03-05T02:58:57.870Z,3.1
2019-03-05T02:59:57.878Z,3.1
2019-03-05T03:00:57.595Z,3.1
2019-03-05T03:01:57.513Z,3.1
2019-03-05T03:02:57.915Z,3.1
2019-03-05T03:03:57.594Z,3.1
2019-03-05T03:04:57.460Z,3.1
2019-03-05T03:05:57.439Z,3.0
2019-03-05T03:06:57.634Z,3.0
2019-03-05T03:07:57.420Z,2.9
2019-03-05T03:08:57.417Z,2.9
2019-03-05T03:09:57.581Z,2.9
2019-03-05T03:10:57.597Z,2.9
2019-03-05T03:11:57.410Z,2.9
2019-03-05T03:12:57.896Z,2.9
2019-03-05T03:13:57.449Z,2.9
2019-03-05T03:14:57.428Z,2.9
2019-03-05T03:15:57.402Z,2.8
2019-03-05T03:16:57.511Z,2.8
2019-03-05T03:17:57.529Z,2.9
2019-03-05T03:18:57.605Z,2.9
2019-03-05T03:19:57.823Z,2.9
2019-03-05T03:20:57.497Z,2.8
2019-03-05T03:21:57.636Z,2.8
2019-03-05T03:22:57.945Z,2.8
2019-03-05T03:23:57.950Z,2.9
2019-03-05T03:24:57.470Z,2.9
2019-03-05T03:25:57.674Z,3.0
2019-03-05T03:26:57.625Z,3.0
2019-03-05T03:27:57.589Z,3.0
2019-03-05T03:28:57.553Z,3.0
2019-03-05T03:29:58.124Z,3.0
2019-03-05T03:30:57.798Z,2.9
2019-03-05T03:31:57.594Z,2.9
2019-03-05T03:32:57.913Z,2.9
2019-03-05T03:33:57.806Z,2.9
2019-03-05T03:34:57.862Z,2.9
2019-03-05T03:35:58.024Z,2.9
2019-03-05T03:36:57.486Z,2.9
2019-03-05T03:37:57.740Z,2.9
2019-03-05T03:38:57.538Z,2.7
2019-03-05T03:39:57.544Z,2.7
2019-03-05T03:40:57.962Z,2.7
2019-03-05T03:41:58.101Z,2.7
2019-03-05T03:42:59.285Z,2.7
2019-03-05T03:43:57.710Z,2.7
2019-03-05T03:44:57.537Z,2.7
2019-03-05T03:45:57.635Z,2.7
2019-03-05T03:46:58.025Z,2.7
2019-03-05T03:47:57.584Z,2.7
2019-03-05T03:48:58.058Z,2.7
2019-03-05T03:49:57.550Z,2.7
2019-03-05T03:50:57.569Z,2.7
2019-03-05T03:51:57.558Z,2.8
2019-03-05T03:52:57.823Z,2.8
2019-03-05T03:53:57.674Z,2.8
2019-03-05T03:54:57.491Z,2.8
2019-03-05T03:55:57.827Z,2.8
2019-03-05T03:56:57.642Z,2.7
2019-03-05T03:57:57.546Z,2.7
2019-03-05T03:58:57.560Z,2.6
2019-03-05T03:59:57.600Z,2.6
2019-03-05T04:00:57.562Z,2.6
2019-03-05T04:01:57.661Z,2.5
2019-03-05T04:02:57.796Z,2.5
2019-03-05T04:03:57.819Z,2.5
2019-03-05T04:04:58.097Z,2.5
2019-03-05T04:05:57.917Z,2.5
2019-03-05T04:06:58.184Z,2.6
2019-03-05T04:07:57.803Z,2.6
2019-03-05T04:08:58.031Z,2.7
2019-03-05T04:09:57.589Z,2.7
2019-03-05T04:10:57.796Z,2.7
2019-03-05T04:11:58.049Z,2.8
2019-03-05T04:12:58.106Z,2.8
2019-03-05T04:13:59.495Z,2.8
2019-03-05T04:14:57.573Z,2.8
2019-03-05T04:15:57.811Z,2.8
2019-03-05T04:16:57.623Z,2.9
2019-03-05T04:17:58.115Z,2.9
2019-03-05T04:18:57.826Z,2.9
2019-03-05T04:19:57.730Z,2.9
2019-03-05T04:20:58.091Z,2.9
2019-03-05T04:21:57.581Z,2.9
2019-03-05T04:22:57.616Z,2.9
2019-03-05T04:23:57.741Z,2.9
2019-03-05T04:24:57.767Z,3.0
2019-03-05T04:25:58.063Z,3.0
2019-03-05T04:26:57.612Z,3.1
2019-03-05T04:27:57.637Z,3.1
2019-03-05T04:28:57.794Z,3.1
2019-03-05T04:29:58.079Z,3.1
2019-03-05T04:30:57.771Z,3.1
2019-03-05T04:31:57.679Z,3.1
2019-03-05T04:32:57.646Z,3.1
2019-03-05T04:33:57.658Z,3.1
2019-03-05T04:34:57.786Z,3.1
2019-03-05T04:35:57.686Z,3.1
2019-03-05T04:36:57.560Z,3.3
2019-03-05T04:37:57.827Z,3.3
2019-03-05T04:38:57.785Z,3.3
2019-03-05T04:39:57.572Z,3.3
2019-03-05T04:40:57.595Z,3.3
2019-03-05T04:41:57.842Z,3.2
2019-03-05T04:42:57.779Z,3.2
2019-03-05T04:43:57.994Z,3.2
2019-03-05T04:44:57.591Z,3.2
2019-03-05T04:45:57.776Z,3.2
2019-03-05T04:46:58.134Z,3.2
2019-03-05T04:47:57.896Z,3.2
2019-03-05T04:48:57.793Z,3.2
2019-03-05T04:49:58.097Z,3.3
2019-03-05T04:50:57.927Z,3.3
2019-03-05T04:51:58.132Z,3.3
2019-03-05T04:52:57.649Z,3.4
2019-03-05T04:53:57.850Z,3.4
2019-03-05T04:54:57.895Z,3.4
2019-03-05T04:55:57.696Z,3.4
2019-03-05T04:56:57.903Z,3.4
2019-03-05T04:57:57.719Z,3.4
2019-03-05T04:58:57.828Z,3.4
2019-03-05T04:59:57.696Z,3.3
2019-03-05T05:00:58.111Z,3.3
2019-03-05T05:02:14.170Z,3.3
2019-03-05T05:02:58.459Z,3.3
2019-03-05T05:03:57.724Z,3.3
2019-03-05T05:04:58.097Z,3.3
2019-03-05T05:05:57.777Z,3.3
2019-03-05T05:06:57.667Z,3.3
2019-03-05T05:07:57.623Z,3.4
2019-03-05T05:08:57.670Z,3.4
2019-03-05T05:09:57.720Z,3.3
2019-03-05T05:10:58.207Z,3.3
2019-03-05T05:11:57.662Z,3.3
2019-03-05T05:12:58.055Z,3.3
2019-03-05T05:13:58.089Z,3.3
2019-03-05T05:14:57.702Z,3.3
2019-03-05T05:15:58.178Z,3.3
2019-03-05T05:16:57.653Z,3.3
2019-03-05T05:17:57.597Z,3.4
2019-03-05T05:18:57.771Z,3.4
2019-03-05T05:19:58.091Z,3.4
2019-03-05T05:20:57.611Z,3.4
2019-03-05T05:21:57.651Z,3.4
2019-03-05T05:22:58.071Z,3.5
2019-03-05T05:23:57.683Z,3.5
2019-03-05T05:24:57.720Z,3.5
2019-03-05T05:25:57.733Z,3.5
2019-03-05T05:26:58.053Z,3.5
2019-03-05T05:27:57.836Z,3.4
2019-03-05T05:28:58.156Z,3.4
2019-03-05T05:29:58.876Z,3.4
2019-03-05T05:30:57.767Z,3.5
2019-03-05T05:31:58.378Z,3.5
2019-03-05T05:32:57.682Z,3.5
2019-03-05T05:33:58.667Z,3.5
2019-03-05T05:34:57.904Z,3.5
2019-03-05T05:35:58.949Z,3.5
2019-03-05T05:36:57.801Z,3.5
2019-03-05T05:37:58.653Z,3.5
2019-03-05T05:38:57.741Z,3.5
2019-03-05T05:39:57.792Z,3.5
2019-03-05T05:40:57.746Z,3.5
2019-03-05T05:41:58.141Z,3.5
2019-03-05T05:42:57.938Z,3.5
2019-03-05T05:43:57.952Z,3.5
2019-03-05T05:44:58.252Z,3.5
2019-03-05T05:45:57.826Z,3.5
2019-03-05T05:46:58.264Z,3.5
2019-03-05T05:47:58.314Z,3.5
2019-03-05T05:48:57.971Z,3.5
2019-03-05T05:49:57.915Z,3.5
2019-03-05T05:50:57.819Z,3.3
2019-03-05T05:51:58.134Z,3.3
2019-03-05T05:52:58.260Z,3.3
2019-03-05T05:53:57.858Z,3.1
2019-03-05T05:54:57.806Z,3.1
2019-03-05T05:55:58.021Z,3.1
2019-03-05T05:56:57.948Z,3.1
2019-03-05T05:57:58.751Z,3.1
2019-03-05T05:58:57.951Z,3.4
2019-03-05T05:59:57.856Z,3.4
2019-03-05T06:00:58.002Z,3.5
2019-03-05T06:01:58.211Z,3.5
2019-03-05T06:02:58.264Z,3.5
2019-03-05T06:03:57.960Z,3.4
2019-03-05T06:04:58.163Z,3.4
2019-03-05T06:05:58.124Z,3.4
2019-03-05T06:06:58.233Z,3.4
2019-03-05T06:07:58.015Z,3.4
2019-03-05T06:08:57.885Z,3.5
2019-03-05T06:09:58.302Z,3.5
2019-03-05T06:10:58.155Z,3.5
2019-03-05T06:11:58.015Z,3.5
2019-03-05T06:12:58.321Z,3.5
2019-03-05T06:13:57.836Z,3.5
2019-03-05T06:14:58.174Z,3.5
2019-03-05T06:15:58.151Z,3.5
2019-03-05T06:16:57.851Z,3.5
2019-03-05T06:17:57.811Z,3.5
2019-03-05T06:18:58.327Z,3.5
2019-03-05T06:19:57.935Z,3.5
2019-03-05T06:20:57.841Z,3.5
2019-03-05T06:21:57.981Z,3.5
2019-03-05T06:22:57.914Z,3.5
2019-03-05T06:23:57.888Z,3.5
2019-03-05T06:24:57.879Z,3.5
2019-03-05T06:25:58.106Z,3.5
2019-03-05T06:26:58.320Z,3.4
2019-03-05T06:27:57.843Z,3.4
2019-03-05T06:28:57.848Z,3.3
2019-03-05T06:29:58.934Z,3.3
2019-03-05T06:30:57.898Z,3.3
2019-03-05T06:31:58.330Z,3.2
2019-03-05T06:32:58.021Z,3.2
2019-03-05T06:33:57.874Z,3.3
2019-03-05T06:34:58.746Z,3.3
2019-03-05T06:35:57.949Z,3.3
2019-03-05T06:36:58.625Z,3.3
2019-03-05T06:37:58.121Z,3.3
2019-03-05T06:38:57.869Z,3.3
2019-03-05T06:39:58.357Z,3.3
2019-03-05T06:40:58.083Z,3.3
2019-03-05T06:41:57.910Z,3.2
2019-03-05T06:42:57.979Z,3.2
2019-03-05T06:43:57.855Z,3.1
2019-03-05T06:44:58.185Z,3.1
2019-03-05T06:45:58.056Z,3.1
2019-03-05T06:46:57.991Z,3.2
2019-03-05T06:47:57.935Z,3.2
2019-03-05T06:48:58.075Z,3.3
2019-03-05T06:49:58.379Z,3.3
2019-03-05T06:50:58.215Z,3.3
2019-03-05T06:51:59.071Z,3.4
2019-03-05T06:52:58.791Z,3.4
2019-03-05T06:53:58.146Z,3.4
2019-03-05T06:54:58.454Z,3.4
2019-03-05T06:55:58.120Z,3.4
2019-03-05T06:56:57.957Z,3.4
2019-03-05T06:57:58.366Z,3.4
2019-03-05T06:58:57.870Z,3.4
2019-03-05T06:59:58.069Z,3.3
2019-03-05T07:00:57.975Z,3.3
2019-03-05T07:01:58.105Z,3.3
2019-03-05T07:02:58.010Z,3.3
2019-03-05T07:03:58.835Z,3.3
2019-03-05T07:04:58.144Z,3.5
2019-03-05T07:05:58.104Z,3.5
2019-03-05T07:06:58.050Z,3.6
2019-03-05T07:07:58.905Z,3.6
2019-03-05T07:08:58.532Z,3.6
2019-03-05T07:09:58.191Z,3.7
2019-03-05T07:10:58.839Z,3.7
2019-03-05T07:11:57.954Z,3.8
2019-03-05T07:12:58.016Z,3.8
2019-03-05T07:13:58.008Z,3.8
2019-03-05T07:14:59.330Z,3.8
2019-03-05T07:15:58.007Z,3.8
2019-03-05T07:16:58.247Z,3.8
2019-03-05T07:17:58.219Z,3.8
2019-03-05T07:18:58.227Z,3.8
2019-03-05T07:19:58.450Z,3.9
2019-03-05T07:20:58.219Z,3.9
2019-03-05T07:21:58.210Z,3.9
2019-03-05T07:22:58.344Z,3.9
2019-03-05T07:23:57.917Z,3.9
2019-03-05T07:24:58.236Z,4.1
2019-03-05T07:25:58.170Z,4.1
2019-03-05T07:26:57.986Z,4.1
2019-03-05T07:27:57.928Z,4.1
2019-03-05T07:28:57.945Z,4.1
2019-03-05T07:29:58.168Z,4.2
2019-03-05T07:30:58.062Z,4.2
2019-03-05T07:31:58.396Z,4.2
2019-03-05T07:32:58.174Z,4.2
2019-03-05T07:33:57.893Z,4.2
2019-03-05T07:34:58.590Z,4.3
2019-03-05T07:35:58.138Z,4.3
2019-03-05T07:36:58.137Z,4.3
2019-03-05T07:37:57.874Z,4.3
2019-03-05T07:38:58.059Z,4.3
2019-03-05T07:39:58.115Z,4.4
2019-03-05T07:40:57.910Z,4.4
2019-03-05T07:41:57.900Z,4.4
2019-03-05T07:42:58.026Z,4.5
2019-03-05T07:43:57.905Z,4.5
2019-03-05T07:45:14.479Z,4.5
2019-03-05T07:45:57.976Z,4.5
2019-03-05T07:46:58.061Z,4.5
2019-03-05T07:47:58.079Z,4.5
2019-03-05T07:48:58.303Z,4.5
2019-03-05T07:49:58.022Z,4.7
2019-03-05T07:50:58.046Z,4.7
2019-03-05T07:51:57.924Z,4.7
2019-03-05T07:52:58.717Z,4.7
2019-03-05T07:53:58.015Z,4.7
2019-03-05T07:54:58.403Z,4.7
2019-03-05T07:55:57.950Z,4.8
2019-03-05T07:56:58.069Z,4.8
2019-03-05T07:57:58.317Z,4.8
2019-03-05T07:58:58.132Z,4.8
2019-03-05T07:59:58.315Z,4.8
2019-03-05T08:00:58.226Z,4.8
2019-03-05T08:01:58.476Z,4.8
2019-03-05T08:02:58.032Z,5.1
2019-03-05T08:04:00.307Z,5.1
2019-03-05T08:04:58.081Z,5.1
2019-03-05T08:05:57.970Z,5.3
2019-03-05T08:06:58.101Z,5.3
2019-03-05T08:07:58.076Z,5.3
2019-03-05T08:08:58.263Z,5.3
2019-03-05T08:09:58.009Z,5.3
2019-03-05T08:10:58.121Z,5.4
2019-03-05T08:11:58.169Z,5.4
2019-03-05T08:12:58.031Z,5.4
2019-03-05T08:13:57.950Z,5.4
2019-03-05T08:14:58.680Z,5.4
2019-03-05T08:16:02.014Z,5.4
2019-03-05T08:16:57.985Z,5.4
2019-03-05T08:17:58.004Z,5.4
2019-03-05T08:18:58.255Z,5.4
2019-03-05T08:19:58.484Z,5.4
2019-03-05T08:20:58.477Z,5.3
2019-03-05T08:21:58.151Z,5.3
2019-03-05T08:22:58.423Z,5.3
2019-03-05T08:23:57.930Z,5.3
2019-03-05T08:24:58.734Z,5.3
2019-03-05T08:25:58.181Z,5.2
2019-03-05T08:26:58.421Z,5.2
2019-03-05T08:27:58.393Z,5.2
2019-03-05T08:28:58.002Z,5.3
2019-03-05T08:29:58.198Z,5.3
2019-03-05T08:30:58.431Z,5.3
2019-03-05T08:31:58.216Z,5.3
2019-03-05T08:32:58.252Z,5.3
2019-03-05T08:33:57.960Z,5.3
2019-03-05T08:34:59.018Z,5.3
2019-03-05T08:35:58.100Z,5.3
2019-03-05T08:36:58.176Z,5.3
2019-03-05T08:38:26.469Z,5.3
2019-03-05T08:38:58.010Z,5.3
2019-03-05T08:39:58.196Z,5.3
2019-03-05T08:40:58.016Z,5.4
2019-03-05T08:41:58.123Z,5.4
2019-03-05T08:42:58.037Z,5.4
2019-03-05T08:43:58.074Z,5.4
2019-03-05T08:44:58.015Z,5.4
2019-03-05T08:45:58.286Z,5.4
2019-03-05T08:46:58.029Z,5.4
2019-03-05T08:47:58.017Z,5.4
2019-03-05T08:48:57.977Z,5.4
2019-03-05T08:49:58.182Z,5.4
2019-03-05T08:50:57.972Z,5.5
2019-03-05T08:51:58.045Z,5.5
2019-03-05T08:52:58.925Z,5.5
2019-03-05T08:53:59.324Z,5.7
2019-03-05T08:54:58.525Z,5.7
2019-03-05T08:55:58.143Z,5.7
2019-03-05T08:56:58.097Z,5.8
2019-03-05T08:57:58.113Z,5.8
2019-03-05T08:58:58.169Z,5.8
2019-03-05T08:59:58.467Z,5.8
2019-03-05T09:00:58.237Z,5.8
2019-03-05T09:01:58.265Z,5.6
2019-03-05T09:02:58.111Z,5.6
2019-03-05T09:03:58.237Z,5.7
2019-03-05T09:04:58.543Z,5.7
2019-03-05T09:05:58.111Z,5.7
2019-03-05T09:06:58.897Z,5.8
2019-03-05T09:07:58.251Z,5.8
2019-03-05T09:08:58.072Z,6.0
2019-03-05T09:09:58.249Z,6.0
2019-03-05T09:10:58.463Z,6.0
2019-03-05T09:11:58.639Z,6.2
2019-03-05T09:12:58.083Z,6.2
2019-03-05T09:13:58.336Z,6.3
2019-03-05T09:14:58.115Z,6.3
2019-03-05T09:15:58.136Z,6.3
2019-03-05T09:16:58.074Z,6.4
2019-03-05T09:17:58.437Z,6.4
2019-03-05T09:19:00.243Z,6.4
2019-03-05T09:20:02.341Z,6.4
2019-03-05T09:21:00.094Z,6.4
2019-03-05T09:21:58.490Z,6.3
2019-03-05T09:22:58.149Z,6.3
2019-03-05T09:23:58.779Z,6.2
2019-03-05T09:25:00.937Z,6.2
2019-03-05T09:26:02.251Z,6.2
2019-03-05T09:26:58.851Z,6.4
2019-03-05T09:28:00.196Z,6.4
2019-03-05T09:28:58.416Z,6.4
2019-03-05T09:29:58.147Z,6.4
2019-03-05T09:31:01.005Z,6.4
2019-03-05T09:32:00.120Z,6.6
2019-03-05T09:32:58.695Z,6.6
2019-03-05T09:34:00.261Z,6.6
2019-03-05T09:34:58.434Z,6.6
2019-03-05T09:35:58.159Z,6.6
2019-03-05T09:37:01.311Z,6.8
2019-03-05T09:37:58.527Z,6.8
2019-03-05T09:38:58.498Z,6.8
2019-03-05T09:39:59.045Z,6.7
2019-03-05T09:40:58.088Z,6.7
2019-03-05T09:41:58.470Z,6.8
2019-03-05T09:42:59.170Z,6.8
2019-03-05T09:43:59.363Z,6.8
2019-03-05T09:44:58.309Z,7.0
2019-03-05T09:45:58.228Z,7.0
2019-03-05T09:46:58.562Z,6.9
2019-03-05T09:47:58.164Z,6.9
2019-03-05T09:48:58.154Z,6.9
2019-03-05T09:50:01.313Z,7.2
2019-03-05T09:50:59.316Z,7.2
2019-03-05T09:52:02.519Z,7.2
2019-03-05T09:52:58.448Z,7.2
2019-03-05T09:54:00.400Z,7.2
2019-03-05T09:54:59.436Z,7.1
2019-03-05T09:55:58.611Z,7.1
2019-03-05T09:56:58.770Z,7.1
2019-03-05T09:58:07.015Z,7.1
2019-03-05T09:58:58.300Z,7.1
2019-03-05T09:59:58.330Z,7.1
2019-03-05T10:00:58.616Z,7.1
2019-03-05T10:02:14.395Z,7.1
2019-03-05T10:02:58.185Z,7.3
2019-03-05T10:03:58.232Z,7.3
2019-03-05T10:04:58.241Z,7.4
2019-03-05T10:05:58.352Z,7.4
2019-03-05T10:06:58.176Z,7.4
2019-03-05T10:08:00.318Z,7.4
2019-03-05T10:08:59.084Z,7.4
2019-03-05T10:09:58.358Z,7.2
2019-03-05T10:10:58.295Z,7.2
2019-03-05T10:12:00.664Z,7.2
2019-03-05T10:12:58.808Z,7.2
2019-03-05T10:13:58.587Z,7.2
2019-03-05T10:14:58.419Z,7.4
2019-03-05T10:15:58.187Z,7.4
2019-03-05T10:16:58.230Z,7.4
2019-03-05T10:17:58.425Z,7.5
2019-03-05T10:18:58.268Z,7.5
2019-03-05T10:19:58.154Z,7.7
2019-03-05T10:20:58.624Z,7.7
2019-03-05T10:21:59.135Z,7.7
2019-03-05T10:22:58.539Z,7.7
2019-03-05T10:24:09.541Z,7.7
2019-03-05T10:25:05.619Z,7.7
2019-03-05T10:25:58.736Z,7.7
2019-03-05T10:26:58.217Z,7.7
2019-03-05T10:27:58.638Z,7.7
2019-03-05T10:28:58.480Z,7.7
2019-03-05T10:29:58.352Z,7.7
2019-03-05T10:30:58.215Z,7.8
2019-03-05T10:31:58.898Z,7.8
2019-03-05T10:32:58.835Z,7.5
2019-03-05T10:33:58.758Z,7.5
2019-03-05T10:34:58.399Z,7.5
2019-03-05T10:35:58.172Z,7.3
2019-03-05T10:36:58.453Z,7.3
2019-03-05T10:37:58.829Z,7.4
2019-03-05T10:38:58.672Z,7.4
2019-03-05T10:39:58.142Z,7.4
2019-03-05T10:40:58.406Z,7.4
2019-03-05T10:41:58.629Z,7.4
2019-03-05T10:43:07.788Z,7.4
2019-03-05T10:43:58.409Z,7.4
2019-03-05T10:44:58.650Z,7.4
2019-03-05T10:45:58.954Z,7.4
2019-03-05T10:46:58.296Z,7.4
2019-03-05T10:47:58.701Z,7.3
2019-03-05T10:48:58.524Z,7.3
2019-03-05T10:49:58.263Z,7.3
2019-03-05T10:50:58.439Z,7.4
2019-03-05T10:51:58.990Z,7.4
2019-03-05T10:52:58.795Z,7.5
2019-03-05T10:53:58.540Z,7.5
2019-03-05T10:54:58.480Z,7.5
2019-03-05T10:55:58.486Z,7.3
2019-03-05T10:56:58.623Z,7.3
2019-03-05T10:57:58.607Z,7.3
2019-03-05T10:58:58.268Z,7.2
2019-03-05T10:59:58.659Z,7.2
2019-03-05T11:00:58.795Z,7.2
2019-03-05T11:01:58.279Z,7.2
2019-03-05T11:02:58.341Z,7.2
2019-03-05T11:03:58.675Z,7.3
2019-03-05T11:04:58.334Z,7.3
2019-03-05T11:05:58.565Z,7.4
2019-03-05T11:06:58.672Z,7.4
2019-03-05T11:07:58.386Z,7.4
2019-03-05T11:08:58.307Z,7.4
2019-03-05T11:09:58.473Z,7.4
2019-03-05T11:10:58.533Z,7.4
2019-03-05T11:11:58.712Z,7.4
2019-03-05T11:12:58.285Z,7.4
2019-03-05T11:13:58.272Z,7.4
2019-03-05T11:14:58.338Z,7.4
2019-03-05T11:15:58.842Z,7.5
2019-03-05T11:16:58.302Z,7.5
2019-03-05T11:17:58.658Z,7.5
2019-03-05T11:18:58.328Z,7.4
2019-03-05T11:19:58.468Z,7.4
2019-03-05T11:20:58.758Z,7.4
2019-03-05T11:21:58.707Z,7.4
2019-03-05T11:22:58.689Z,7.4
2019-03-05T11:23:58.228Z,7.2
2019-03-05T11:24:58.535Z,7.2
2019-03-05T11:25:58.363Z,7.2
2019-03-05T11:26:58.705Z,7.2
2019-03-05T11:27:58.482Z,7.2
2019-03-05T11:28:58.756Z,7.3
2019-03-05T11:29:58.337Z,7.3
2019-03-05T11:30:58.723Z,7.3
2019-03-05T11:31:58.323Z,7.4
2019-03-05T11:32:58.249Z,7.4
2019-03-05T11:33:58.482Z,7.4
2019-03-05T11:34:58.457Z,7.4
2019-03-05T11:35:58.298Z,7.4
2019-03-05T11:36:58.765Z,7.3
2019-03-05T11:37:58.470Z,7.3
2019-03-05T11:38:58.316Z,7.2
2019-03-05T11:39:58.817Z,7.2
2019-03-05T11:40:58.497Z,7.2
2019-03-05T11:41:58.767Z,7.3
2019-03-05T11:42:58.464Z,7.3
2019-03-05T11:43:58.320Z,7.3
2019-03-05T11:45:06.704Z,7.3
2019-03-05T11:45:58.722Z,7.3
2019-03-05T11:46:58.364Z,7.4
2019-03-05T11:47:58.334Z,7.4
2019-03-05T11:48:58.284Z,7.5
2019-03-05T11:49:58.366Z,7.5
2019-03-05T11:50:58.301Z,7.5
2019-03-05T11:51:58.496Z,7.5
2019-03-05T12:02:45.139Z,7.5
2019-03-05T12:02:53.998Z,7.5
2019-03-05T12:03:54.145Z,6.8
2019-03-05T12:04:53.966Z,6.2
2019-03-05T12:05:54.490Z,6.2
2019-03-05T12:06:54.260Z,6.0
2019-03-05T12:07:54.075Z,6.0
2019-03-05T12:08:54.331Z,6.0
2019-03-05T12:09:54.303Z,6.2
2019-03-05T12:10:54.206Z,6.2
2019-03-05T12:11:54.405Z,6.2
2019-03-05T12:12:53.940Z,6.2
2019-03-05T12:13:54.156Z,6.2
2019-03-05T12:14:53.933Z,6.3
2019-03-05T12:15:53.986Z,6.3
2019-03-05T12:16:53.935Z,6.5
2019-03-05T12:17:54.105Z,6.5
2019-03-05T12:18:54.183Z,6.5
2019-03-05T12:19:53.929Z,6.4
2019-03-05T12:20:56.168Z,6.4
2019-03-05T12:21:54.380Z,6.3
2019-03-05T12:22:53.960Z,6.3
2019-03-05T12:23:54.048Z,6.3
2019-03-05T12:24:57.541Z,6.3
2019-03-05T12:25:53.986Z,6.3
2019-03-05T12:26:53.957Z,6.3
2019-03-05T12:27:53.981Z,6.1
2019-03-05T12:28:53.941Z,6.1
2019-03-05T12:29:54.405Z,6.2
2019-03-05T12:30:53.923Z,6.2
2019-03-05T12:31:54.371Z,6.2
2019-03-05T12:32:54.169Z,6.3
2019-03-05T12:33:53.979Z,6.3
2019-03-05T12:34:54.200Z,6.2
2019-03-05T12:35:54.516Z,6.2
2019-03-05T12:36:54.451Z,6.2
2019-03-05T12:37:54.198Z,6.1
2019-03-05T12:38:54.169Z,6.1
2019-03-05T12:39:53.986Z,6.0
2019-03-05T12:40:54.722Z,6.0
2019-03-05T12:41:54.016Z,6.0
2019-03-05T12:42:54.139Z,6.0
2019-03-05T12:43:54.257Z,6.0
2019-03-05T12:44:54.203Z,6.0
2019-03-05T12:45:54.495Z,6.0
2019-03-05T12:46:54.430Z,6.0
2019-03-05T12:47:54.052Z,6.1
2019-03-05T12:48:54.455Z,6.1
2019-03-05T12:49:54.423Z,6.2
2019-03-05T12:50:54.488Z,6.2
2019-03-05T12:51:54.019Z,6.2
2019-03-05T12:52:54.240Z,6.2
2019-03-05T12:53:54.032Z,6.2
2019-03-05T12:54:56.151Z,6.2
2019-03-05T12:55:54.074Z,6.2
2019-03-05T12:56:54.448Z,6.2
2019-03-05T12:57:54.206Z,6.3
2019-03-05T12:58:54.157Z,6.3
2019-03-05T12:59:54.189Z,6.3
2019-03-05T13:00:54.030Z,6.4
2019-03-05T13:01:54.037Z,6.4
2019-03-05T13:02:54.004Z,6.4
2019-03-05T13:03:54.075Z,6.4
2019-03-05T13:04:54.198Z,6.4
2019-03-05T13:05:54.478Z,6.4
2019-03-05T13:06:54.209Z,6.4
2019-03-05T13:07:56.319Z,6.3
2019-03-05T13:08:54.007Z,6.3
2019-03-05T13:09:56.821Z,6.3
2019-03-05T13:10:54.297Z,6.3
2019-03-05T13:11:54.080Z,6.3
2019-03-05T13:12:54.054Z,6.1
2019-03-05T13:14:05.374Z,6.1
2019-03-05T13:14:54.503Z,6.1
2019-03-05T13:15:56.442Z,5.9
2019-03-05T13:16:54.152Z,5.9
2019-03-05T13:17:54.378Z,5.8
2019-03-05T13:18:54.115Z,5.8
2019-03-05T13:19:54.499Z,5.8
2019-03-05T13:20:54.200Z,5.8
2019-03-05T13:21:54.173Z,5.8
2019-03-05T13:22:54.045Z,5.8
2019-03-05T13:23:54.425Z,5.8
2019-03-05T13:24:54.072Z,5.8
2019-03-05T13:25:54.082Z,5.7
2019-03-05T13:26:54.072Z,5.7
2019-03-05T13:27:57.450Z,5.7
2019-03-05T13:28:54.071Z,5.7
2019-03-05T13:29:54.051Z,5.7
2019-03-05T13:30:54.541Z,5.7
2019-03-05T13:31:54.585Z,5.7
2019-03-05T13:32:58.878Z,5.7
2019-03-05T13:33:54.262Z,5.7
2019-03-05T13:34:54.089Z,5.7
2019-03-05T13:35:54.157Z,5.6
2019-03-05T13:36:54.540Z,5.6
2019-03-05T13:37:54.135Z,5.6
2019-03-05T13:38:54.158Z,5.8
2019-03-05T13:39:54.875Z,5.8
2019-03-05T13:40:54.120Z,5.8
2019-03-05T13:41:54.957Z,5.8
2019-03-05T13:42:54.273Z,5.8
2019-03-05T13:43:55.568Z,5.8
2019-03-05T13:44:54.116Z,5.8
2019-03-05T13:45:54.134Z,5.9
2019-03-05T13:46:54.247Z,5.9
2019-03-05T13:47:54.517Z,5.9
2019-03-05T13:48:58.027Z,6.0
2019-03-05T13:49:56.539Z,6.0
2019-03-05T13:50:54.539Z,6.0
2019-03-05T13:51:56.052Z,6.0
2019-03-05T13:52:55.832Z,6.0
2019-03-05T13:54:05.615Z,6.0
2019-03-05T13:54:54.341Z,6.0
2019-03-05T13:55:54.563Z,6.0